Mineral Wells, Texas
Current Conditions -  °F | °C
As of 1:53 PM on Sunday 25 Jan 2015 (Local Time) from KMWL Reporting Station
Clear Clear  
Wind Chill: 64°   Ceiling: Unl
Heat Index: 64°   Visibility: 10mi
Dew Point: 24°   Wind: 20mph
Humidity: 22%   Direction: 310°NW
Pressure: 30.07"   Gusts: 31mph
Location:  32.81°N, 98.07°W
Report Text: KMWL 251953Z AUTO 31017G27KT 10SM CLR 18/M04 A3007 RMK AO2 PK WND 30033/1935 SLP178 T01781044
Loading
Personal Weather Stations






























Interactive Weather Map New forecast layout! Learn more

10-Day Weather Forecast

Advertisements
Track Severe Weather on mobile